sensor_id;sensor_type;location;lat;lon;timestamp;temperature;humidity
80212;DHT22;70434;37.956;23.722;2023-07-24T00:02:00;35.20;34.60
80212;DHT22;70434;37.956;23.722;2023-07-24T00:04:26;35.10;34.60
80212;DHT22;70434;37.956;23.722;2023-07-24T00:06:51;35.20;34.60
80212;DHT22;70434;37.956;23.722;2023-07-24T00:09:17;35.20;34.60
80212;DHT22;70434;37.956;23.722;2023-07-24T00:11:43;35.20;34.60
80212;DHT22;70434;37.956;23.722;2023-07-24T00:14:08;35.20;34.60
80212;DHT22;70434;37.956;23.722;2023-07-24T00:16:34;35.20;34.40
80212;DHT22;70434;37.956;23.722;2023-07-24T00:19:00;35.20;34.60
80212;DHT22;70434;37.956;23.722;2023-07-24T00:21:25;35.20;34.60
80212;DHT22;70434;37.956;23.722;2023-07-24T00:23:51;35.20;34.50
80212;DHT22;70434;37.956;23.722;2023-07-24T00:26:17;35.20;34.20
80212;DHT22;70434;37.956;23.722;2023-07-24T00:28:42;35.20;34.20
80212;DHT22;70434;37.956;23.722;2023-07-24T00:31:08;35.20;34.10
80212;DHT22;70434;37.956;23.722;2023-07-24T00:33:34;35.10;33.20
80212;DHT22;70434;37.956;23.722;2023-07-24T00:36:00;35.10;32.10
80212;DHT22;70434;37.956;23.722;2023-07-24T00:38:26;35.10;30.40
80212;DHT22;70434;37.956;23.722;2023-07-24T00:40:51;35.00;30.00
80212;DHT22;70434;37.956;23.722;2023-07-24T00:43:17;35.00;31.50
80212;DHT22;70434;37.956;23.722;2023-07-24T00:45:44;34.90;32.70
80212;DHT22;70434;37.956;23.722;2023-07-24T00:48:12;34.80;32.70
80212;DHT22;70434;37.956;23.722;2023-07-24T00:50:38;34.90;32.70
80212;DHT22;70434;37.956;23.722;2023-07-24T00:53:07;34.90;32.90
80212;DHT22;70434;37.956;23.722;2023-07-24T00:55:33;34.90;32.50
80212;DHT22;70434;37.956;23.722;2023-07-24T00:58:00;34.80;30.60
80212;DHT22;70434;37.956;23.722;2023-07-24T01:00:26;34.80;29.40
80212;DHT22;70434;37.956;23.722;2023-07-24T01:02:53;34.80;29.20
80212;DHT22;70434;37.956;23.722;2023-07-24T01:05:20;34.70;28.70
80212;DHT22;70434;37.956;23.722;2023-07-24T01:07:46;34.80;28.60
80212;DHT22;70434;37.956;23.722;2023-07-24T01:10:12;34.80;28.40
80212;DHT22;70434;37.956;23.722;2023-07-24T01:15:12;34.60;28.00
80212;DHT22;70434;37.956;23.722;2023-07-24T01:17:45;34.60;28.20
80212;DHT22;70434;37.956;23.722;2023-07-24T01:20:15;34.60;27.90
80212;DHT22;70434;37.956;23.722;2023-07-24T01:23:04;34.60;27.90
80212;DHT22;70434;37.956;23.722;2023-07-24T01:25:35;34.50;28.10
80212;DHT22;70434;37.956;23.722;2023-07-24T01:28:01;34.50;27.80
80212;DHT22;70434;37.956;23.722;2023-07-24T01:30:27;34.60;27.60
80212;DHT22;70434;37.956;23.722;2023-07-24T01:32:52;34.50;28.20
80212;DHT22;70434;37.956;23.722;2023-07-24T01:35:21;34.50;27.30
80212;DHT22;70434;37.956;23.722;2023-07-24T01:37:47;34.50;27.20
80212;DHT22;70434;37.956;23.722;2023-07-24T01:40:13;34.40;27.10
80212;DHT22;70434;37.956;23.722;2023-07-24T01:42:39;34.40;27.10
80212;DHT22;70434;37.956;23.722;2023-07-24T01:45:06;34.30;27.30
80212;DHT22;70434;37.956;23.722;2023-07-24T01:47:32;34.20;27.60
80212;DHT22;70434;37.956;23.722;2023-07-24T01:49:58;34.10;27.90
80212;DHT22;70434;37.956;23.722;2023-07-24T01:52:25;34.00;28.20
80212;DHT22;70434;37.956;23.722;2023-07-24T01:54:50;33.80;28.60
80212;DHT22;70434;37.956;23.722;2023-07-24T01:57:16;33.80;28.80
80212;DHT22;70434;37.956;23.722;2023-07-24T01:59:42;33.70;28.90
80212;DHT22;70434;37.956;23.722;2023-07-24T02:02:09;33.80;29.00
80212;DHT22;70434;37.956;23.722;2023-07-24T02:04:35;33.80;29.00
80212;DHT22;70434;37.956;23.722;2023-07-24T02:07:00;33.80;29.40
80212;DHT22;70434;37.956;23.722;2023-07-24T02:09:26;33.80;29.40
80212;DHT22;70434;37.956;23.722;2023-07-24T02:11:52;33.80;29.50
80212;DHT22;70434;37.956;23.722;2023-07-24T02:14:18;33.80;29.60
80212;DHT22;70434;37.956;23.722;2023-07-24T02:16:44;33.80;29.60
80212;DHT22;70434;37.956;23.722;2023-07-24T02:19:10;33.90;29.70
80212;DHT22;70434;37.956;23.722;2023-07-24T02:21:35;33.90;29.90
80212;DHT22;70434;37.956;23.722;2023-07-24T02:24:01;33.90;30.00
80212;DHT22;70434;37.956;23.722;2023-07-24T02:26:27;33.70;30.30
80212;DHT22;70434;37.956;23.722;2023-07-24T02:28:53;33.70;30.70
80212;DHT22;70434;37.956;23.722;2023-07-24T02:31:19;33.70;30.70
80212;DHT22;70434;37.956;23.722;2023-07-24T02:33:47;33.70;31.00
80212;DHT22;70434;37.956;23.722;2023-07-24T02:36:14;33.60;31.10
80212;DHT22;70434;37.956;23.722;2023-07-24T02:38:40;33.60;31.10
80212;DHT22;70434;37.956;23.722;2023-07-24T02:41:05;33.70;31.00
80212;DHT22;70434;37.956;23.722;2023-07-24T02:43:31;33.70;30.90
80212;DHT22;70434;37.956;23.722;2023-07-24T02:46:00;33.70;30.90
80212;DHT22;70434;37.956;23.722;2023-07-24T02:48:27;33.70;31.00
80212;DHT22;70434;37.956;23.722;2023-07-24T02:50:53;33.60;31.10
80212;DHT22;70434;37.956;23.722;2023-07-24T02:53:19;33.60;31.10
80212;DHT22;70434;37.956;23.722;2023-07-24T02:55:44;33.70;31.10
80212;DHT22;70434;37.956;23.722;2023-07-24T02:58:12;33.70;31.00
80212;DHT22;70434;37.956;23.722;2023-07-24T03:00:38;33.80;30.90
80212;DHT22;70434;37.956;23.722;2023-07-24T03:03:04;33.90;30.90
80212;DHT22;70434;37.956;23.722;2023-07-24T03:05:30;33.90;30.20
80212;DHT22;70434;37.956;23.722;2023-07-24T03:07:56;33.90;29.90
80212;DHT22;70434;37.956;23.722;2023-07-24T03:10:23;33.90;29.90
80212;DHT22;70434;37.956;23.722;2023-07-24T03:12:49;33.90;29.90
80212;DHT22;70434;37.956;23.722;2023-07-24T03:15:14;33.90;29.90
80212;DHT22;70434;37.956;23.722;2023-07-24T03:17:40;33.90;29.70
80212;DHT22;70434;37.956;23.722;2023-07-24T03:20:13;33.90;29.60
80212;DHT22;70434;37.956;23.722;2023-07-24T03:22:41;33.90;29.50
80212;DHT22;70434;37.956;23.722;2023-07-24T03:25:07;33.80;29.20
80212;DHT22;70434;37.956;23.722;2023-07-24T03:27:33;33.80;29.30
80212;DHT22;70434;37.956;23.722;2023-07-24T03:29:59;33.70;29.40
80212;DHT22;70434;37.956;23.722;2023-07-24T03:32:25;33.70;29.50
80212;DHT22;70434;37.956;23.722;2023-07-24T03:34:50;33.70;29.60
80212;DHT22;70434;37.956;23.722;2023-07-24T03:37:16;33.60;29.80
80212;DHT22;70434;37.956;23.722;2023-07-24T03:39:42;33.50;30.00
80212;DHT22;70434;37.956;23.722;2023-07-24T03:42:10;33.40;30.20
80212;DHT22;70434;37.956;23.722;2023-07-24T03:44:39;33.40;30.40
80212;DHT22;70434;37.956;23.722;2023-07-24T03:47:06;33.50;30.50
80212;DHT22;70434;37.956;23.722;2023-07-24T03:49:31;33.50;30.70
80212;DHT22;70434;37.956;23.722;2023-07-24T03:51:57;33.40;31.00
80212;DHT22;70434;37.956;23.722;2023-07-24T03:54:23;33.40;31.00
80212;DHT22;70434;37.956;23.722;2023-07-24T03:56:49;33.40;31.30
80212;DHT22;70434;37.956;23.722;2023-07-24T03:59:14;33.40;31.60
80212;DHT22;70434;37.956;23.722;2023-07-24T04:01:40;33.40;31.50
80212;DHT22;70434;37.956;23.722;2023-07-24T04:04:06;33.50;31.50
80212;DHT22;70434;37.956;23.722;2023-07-24T04:06:32;33.60;31.60
80212;DHT22;70434;37.956;23.722;2023-07-24T04:08:57;33.60;31.60
80212;DHT22;70434;37.956;23.722;2023-07-24T04:11:23;33.70;31.60
80212;DHT22;70434;37.956;23.722;2023-07-24T04:13:49;33.70;32.00
80212;DHT22;70434;37.956;23.722;2023-07-24T04:16:15;33.70;31.80
80212;DHT22;70434;37.956;23.722;2023-07-24T04:18:40;33.70;31.80
80212;DHT22;70434;37.956;23.722;2023-07-24T04:21:06;33.80;31.80
80212;DHT22;70434;37.956;23.722;2023-07-24T04:23:32;33.80;31.40
80212;DHT22;70434;37.956;23.722;2023-07-24T04:25:57;33.80;31.00
80212;DHT22;70434;37.956;23.722;2023-07-24T04:28:23;33.80;31.10
80212;DHT22;70434;37.956;23.722;2023-07-24T04:30:49;33.80;30.90
80212;DHT22;70434;37.956;23.722;2023-07-24T04:33:14;33.80;30.70
80212;DHT22;70434;37.956;23.722;2023-07-24T04:35:40;33.80;30.60
80212;DHT22;70434;37.956;23.722;2023-07-24T04:38:06;33.70;30.80
80212;DHT22;70434;37.956;23.722;2023-07-24T04:40:32;33.70;31.00
80212;DHT22;70434;37.956;23.722;2023-07-24T04:42:58;33.70;31.00
80212;DHT22;70434;37.956;23.722;2023-07-24T04:45:24;33.70;30.90
80212;DHT22;70434;37.956;23.722;2023-07-24T04:47:50;33.70;30.80
80212;DHT22;70434;37.956;23.722;2023-07-24T04:50:15;33.70;30.80
80212;DHT22;70434;37.956;23.722;2023-07-24T04:52:41;33.70;30.90
80212;DHT22;70434;37.956;23.722;2023-07-24T04:55:07;33.70;31.00
80212;DHT22;70434;37.956;23.722;2023-07-24T04:57:34;33.70;31.00
80212;DHT22;70434;37.956;23.722;2023-07-24T04:59:59;33.70;31.10
80212;DHT22;70434;37.956;23.722;2023-07-24T05:02:25;33.70;31.00
80212;DHT22;70434;37.956;23.722;2023-07-24T05:04:51;33.70;30.90
80212;DHT22;70434;37.956;23.722;2023-07-24T05:07:16;33.80;31.10
80212;DHT22;70434;37.956;23.722;2023-07-24T05:09:42;33.70;31.20
80212;DHT22;70434;37.956;23.722;2023-07-24T05:12:08;33.80;31.30
80212;DHT22;70434;37.956;23.722;2023-07-24T05:14:34;33.80;31.20
80212;DHT22;70434;37.956;23.722;2023-07-24T05:16:59;33.80;31.00
80212;DHT22;70434;37.956;23.722;2023-07-24T05:19:25;33.80;30.80
80212;DHT22;70434;37.956;23.722;2023-07-24T05:21:51;33.80;30.80
80212;DHT22;70434;37.956;23.722;2023-07-24T05:24:16;33.90;31.00
80212;DHT22;70434;37.956;23.722;2023-07-24T05:26:42;33.90;32.00
80212;DHT22;70434;37.956;23.722;2023-07-24T05:29:08;33.80;31.00
80212;DHT22;70434;37.956;23.722;2023-07-24T05:31:37;33.80;31.20
80212;DHT22;70434;37.956;23.722;2023-07-24T05:34:02;33.70;31.20
80212;DHT22;70434;37.956;23.722;2023-07-24T05:36:29;33.70;31.30
80212;DHT22;70434;37.956;23.722;2023-07-24T05:38:55;33.80;31.40
80212;DHT22;70434;37.956;23.722;2023-07-24T05:41:21;33.90;31.40
80212;DHT22;70434;37.956;23.722;2023-07-24T05:43:47;33.90;31.80
80212;DHT22;70434;37.956;23.722;2023-07-24T05:46:13;33.80;31.80
80212;DHT22;70434;37.956;23.722;2023-07-24T05:48:39;33.80;31.80
80212;DHT22;70434;37.956;23.722;2023-07-24T05:51:04;33.80;31.80
80212;DHT22;70434;37.956;23.722;2023-07-24T05:53:30;33.80;32.10
80212;DHT22;70434;37.956;23.722;2023-07-24T05:56:01;33.80;32.10
80212;DHT22;70434;37.956;23.722;2023-07-24T05:58:28;33.80;31.80
80212;DHT22;70434;37.956;23.722;2023-07-24T06:00:54;33.80;32.00
80212;DHT22;70434;37.956;23.722;2023-07-24T06:03:21;33.80;32.00
80212;DHT22;70434;37.956;23.722;2023-07-24T06:05:53;33.80;33.00
80212;DHT22;70434;37.956;23.722;2023-07-24T06:08:20;33.80;32.40
80212;DHT22;70434;37.956;23.722;2023-07-24T06:10:49;33.80;32.40
80212;DHT22;70434;37.956;23.722;2023-07-24T06:13:18;33.80;32.20
80212;DHT22;70434;37.956;23.722;2023-07-24T06:15:44;34.00;31.90
80212;DHT22;70434;37.956;23.722;2023-07-24T06:18:12;34.00;31.70
80212;DHT22;70434;37.956;23.722;2023-07-24T06:20:37;34.10;31.90
80212;DHT22;70434;37.956;23.722;2023-07-24T06:23:03;34.20;31.90
80212;DHT22;70434;37.956;23.722;2023-07-24T06:25:30;34.20;32.30
80212;DHT22;70434;37.956;23.722;2023-07-24T06:27:57;34.20;32.30
80212;DHT22;70434;37.956;23.722;2023-07-24T06:30:23;34.20;32.00
80212;DHT22;70434;37.956;23.722;2023-07-24T06:32:48;34.20;32.00
80212;DHT22;70434;37.956;23.722;2023-07-24T06:35:14;34.20;32.30
80212;DHT22;70434;37.956;23.722;2023-07-24T06:37:40;34.30;32.20
80212;DHT22;70434;37.956;23.722;2023-07-24T06:40:07;34.40;31.90
80212;DHT22;70434;37.956;23.722;2023-07-24T06:42:33;34.50;31.90
80212;DHT22;70434;37.956;23.722;2023-07-24T06:44:59;34.50;31.90
80212;DHT22;70434;37.956;23.722;2023-07-24T06:47:25;34.60;31.80
80212;DHT22;70434;37.956;23.722;2023-07-24T06:49:51;34.70;32.00
80212;DHT22;70434;37.956;23.722;2023-07-24T06:52:17;34.70;31.40
80212;DHT22;70434;37.956;23.722;2023-07-24T06:54:43;34.80;31.20
80212;DHT22;70434;37.956;23.722;2023-07-24T06:57:09;34.80;31.20
80212;DHT22;70434;37.956;23.722;2023-07-24T06:59:34;34.80;31.20
80212;DHT22;70434;37.956;23.722;2023-07-24T07:02:00;34.90;30.40
80212;DHT22;70434;37.956;23.722;2023-07-24T07:04:26;34.80;30.60
80212;DHT22;70434;37.956;23.722;2023-07-24T07:06:52;34.90;30.70
80212;DHT22;70434;37.956;23.722;2023-07-24T07:09:17;35.00;30.70
80212;DHT22;70434;37.956;23.722;2023-07-24T07:11:43;35.00;31.00
80212;DHT22;70434;37.956;23.722;2023-07-24T07:14:10;35.00;30.50
80212;DHT22;70434;37.956;23.722;2023-07-24T07:16:36;34.90;30.50
80212;DHT22;70434;37.956;23.722;2023-07-24T07:19:02;34.90;30.80
80212;DHT22;70434;37.956;23.722;2023-07-24T07:21:28;34.90;31.50
80212;DHT22;70434;37.956;23.722;2023-07-24T07:23:54;34.90;31.80
80212;DHT22;70434;37.956;23.722;2023-07-24T07:26:20;34.90;31.30
80212;DHT22;70434;37.956;23.722;2023-07-24T07:28:46;35.00;30.90
80212;DHT22;70434;37.956;23.722;2023-07-24T07:31:12;34.90;30.70
80212;DHT22;70434;37.956;23.722;2023-07-24T07:33:38;35.00;30.80
80212;DHT22;70434;37.956;23.722;2023-07-24T07:36:04;35.10;30.50
80212;DHT22;70434;37.956;23.722;2023-07-24T07:38:31;35.20;30.80
80212;DHT22;70434;37.956;23.722;2023-07-24T07:40:57;35.30;30.30
80212;DHT22;70434;37.956;23.722;2023-07-24T07:43:23;35.30;30.00
80212;DHT22;70434;37.956;23.722;2023-07-24T07:45:49;35.30;29.80
80212;DHT22;70434;37.956;23.722;2023-07-24T07:48:15;35.40;30.00
80212;DHT22;70434;37.956;23.722;2023-07-24T07:50:41;35.40;29.90
80212;DHT22;70434;37.956;23.722;2023-07-24T07:53:06;35.40;29.50
80212;DHT22;70434;37.956;23.722;2023-07-24T07:55:32;35.30;29.90
80212;DHT22;70434;37.956;23.722;2023-07-24T07:57:58;35.40;29.80
80212;DHT22;70434;37.956;23.722;2023-07-24T08:00:24;35.40;29.80
80212;DHT22;70434;37.956;23.722;2023-07-24T08:02:49;35.50;29.70
80212;DHT22;70434;37.956;23.722;2023-07-24T08:05:15;35.50;29.50
80212;DHT22;70434;37.956;23.722;2023-07-24T08:07:41;35.50;29.80
80212;DHT22;70434;37.956;23.722;2023-07-24T08:10:07;35.60;29.70
80212;DHT22;70434;37.956;23.722;2023-07-24T08:12:33;35.60;29.70
80212;DHT22;70434;37.956;23.722;2023-07-24T08:14:59;35.60;29.80
80212;DHT22;70434;37.956;23.722;2023-07-24T08:17:25;35.70;29.60
80212;DHT22;70434;37.956;23.722;2023-07-24T08:19:51;35.80;29.10
80212;DHT22;70434;37.956;23.722;2023-07-24T08:22:16;35.80;29.00
80212;DHT22;70434;37.956;23.722;2023-07-24T08:24:42;35.90;28.60
80212;DHT22;70434;37.956;23.722;2023-07-24T08:27:10;35.90;28.80
80212;DHT22;70434;37.956;23.722;2023-07-24T08:29:38;36.00;28.00
80212;DHT22;70434;37.956;23.722;2023-07-24T08:32:05;36.00;27.60
80212;DHT22;70434;37.956;23.722;2023-07-24T08:34:30;36.00;27.70
80212;DHT22;70434;37.956;23.722;2023-07-24T08:36:56;36.00;27.90
80212;DHT22;70434;37.956;23.722;2023-07-24T08:39:22;36.20;27.70
80212;DHT22;70434;37.956;23.722;2023-07-24T08:41:48;36.20;27.50
80212;DHT22;70434;37.956;23.722;2023-07-24T08:44:14;36.30;26.90
80212;DHT22;70434;37.956;23.722;2023-07-24T08:46:40;36.30;26.90
80212;DHT22;70434;37.956;23.722;2023-07-24T08:49:14;36.40;26.40
80212;DHT22;70434;37.956;23.722;2023-07-24T08:51:45;36.40;26.30
80212;DHT22;70434;37.956;23.722;2023-07-24T08:54:12;36.50;26.00
80212;DHT22;70434;37.956;23.722;2023-07-24T08:56:38;36.60;25.40
80212;DHT22;70434;37.956;23.722;2023-07-24T08:59:05;36.60;26.20
80212;DHT22;70434;37.956;23.722;2023-07-24T09:01:32;36.60;25.70
80212;DHT22;70434;37.956;23.722;2023-07-24T09:03:57;36.60;25.80
80212;DHT22;70434;37.956;23.722;2023-07-24T09:06:23;36.60;25.70
80212;DHT22;70434;37.956;23.722;2023-07-24T09:08:53;36.60;25.60
80212;DHT22;70434;37.956;23.722;2023-07-24T09:11:18;36.50;25.60
80212;DHT22;70434;37.956;23.722;2023-07-24T09:13:44;36.60;25.30
80212;DHT22;70434;37.956;23.722;2023-07-24T09:16:21;36.70;25.30
80212;DHT22;70434;37.956;23.722;2023-07-24T09:18:48;36.70;24.90
80212;DHT22;70434;37.956;23.722;2023-07-24T09:21:14;36.80;25.10
80212;DHT22;70434;37.956;23.722;2023-07-24T09:23:39;36.90;25.00
80212;DHT22;70434;37.956;23.722;2023-07-24T09:26:07;36.90;24.80
80212;DHT22;70434;37.956;23.722;2023-07-24T09:28:34;37.00;24.90
80212;DHT22;70434;37.956;23.722;2023-07-24T09:31:00;37.00;24.70
80212;DHT22;70434;37.956;23.722;2023-07-24T09:33:40;37.00;24.50
80212;DHT22;70434;37.956;23.722;2023-07-24T09:36:07;37.10;24.70
80212;DHT22;70434;37.956;23.722;2023-07-24T09:38:37;37.10;24.70
80212;DHT22;70434;37.956;23.722;2023-07-24T09:41:04;37.10;24.80
80212;DHT22;70434;37.956;23.722;2023-07-24T09:43:31;37.10;24.30
80212;DHT22;70434;37.956;23.722;2023-07-24T09:45:57;37.10;24.30
80212;DHT22;70434;37.956;23.722;2023-07-24T09:48:26;37.10;23.90
80212;DHT22;70434;37.956;23.722;2023-07-24T09:50:57;37.20;23.80
80212;DHT22;70434;37.956;23.722;2023-07-24T09:56:11;37.30;23.20
80212;DHT22;70434;37.956;23.722;2023-07-24T09:58:38;37.40;23.40
80212;DHT22;70434;37.956;23.722;2023-07-24T10:01:06;37.50;23.40
80212;DHT22;70434;37.956;23.722;2023-07-24T10:03:40;37.40;23.20
80212;DHT22;70434;37.956;23.722;2023-07-24T10:06:08;37.40;23.40
80212;DHT22;70434;37.956;23.722;2023-07-24T10:08:36;37.40;23.40
80212;DHT22;70434;37.956;23.722;2023-07-24T10:11:02;37.30;23.30
80212;DHT22;70434;37.956;23.722;2023-07-24T10:13:28;37.30;23.60
80212;DHT22;70434;37.956;23.722;2023-07-24T10:15:55;37.30;23.30
80212;DHT22;70434;37.956;23.722;2023-07-24T10:18:28;37.50;23.20
80212;DHT22;70434;37.956;23.722;2023-07-24T10:21:08;37.50;23.20
80212;DHT22;70434;37.956;23.722;2023-07-24T10:23:36;37.60;23.10
80212;DHT22;70434;37.956;23.722;2023-07-24T10:26:03;37.60;23.60
80212;DHT22;70434;37.956;23.722;2023-07-24T10:28:32;37.60;23.10
80212;DHT22;70434;37.956;23.722;2023-07-24T10:30:58;37.50;23.20
80212;DHT22;70434;37.956;23.722;2023-07-24T10:33:23;37.60;23.10
80212;DHT22;70434;37.956;23.722;2023-07-24T10:35:54;37.70;23.30
80212;DHT22;70434;37.956;23.722;2023-07-24T10:38:37;37.70;23.50
80212;DHT22;70434;37.956;23.722;2023-07-24T10:41:04;37.70;23.70
80212;DHT22;70434;37.956;23.722;2023-07-24T10:43:49;37.70;24.00
80212;DHT22;70434;37.956;23.722;2023-07-24T10:46:20;37.80;23.10
80212;DHT22;70434;37.956;23.722;2023-07-24T10:48:48;38.00;22.90
80212;DHT22;70434;37.956;23.722;2023-07-24T10:51:14;38.00;23.00
80212;DHT22;70434;37.956;23.722;2023-07-24T10:53:49;38.00;23.10
80212;DHT22;70434;37.956;23.722;2023-07-24T10:56:16;38.00;23.10
80212;DHT22;70434;37.956;23.722;2023-07-24T10:58:42;38.10;23.30
80212;DHT22;70434;37.956;23.722;2023-07-24T11:01:08;38.00;23.50
80212;DHT22;70434;37.956;23.722;2023-07-24T11:03:41;38.00;23.30
80212;DHT22;70434;37.956;23.722;2023-07-24T11:06:18;38.20;23.30
80212;DHT22;70434;37.956;23.722;2023-07-24T11:08:54;38.30;23.30
80212;DHT22;70434;37.956;23.722;2023-07-24T11:11:27;38.40;23.20
80212;DHT22;70434;37.956;23.722;2023-07-24T11:13:53;38.50;23.10
80212;DHT22;70434;37.956;23.722;2023-07-24T11:16:19;38.40;23.30
80212;DHT22;70434;37.956;23.722;2023-07-24T11:18:49;38.40;23.40
80212;DHT22;70434;37.956;23.722;2023-07-24T11:21:15;38.50;23.20
80212;DHT22;70434;37.956;23.722;2023-07-24T11:23:49;38.60;23.20
80212;DHT22;70434;37.956;23.722;2023-07-24T11:26:15;38.50;23.20
80212;DHT22;70434;37.956;23.722;2023-07-24T11:28:44;38.50;23.40
80212;DHT22;70434;37.956;23.722;2023-07-24T11:31:09;38.50;23.50
80212;DHT22;70434;37.956;23.722;2023-07-24T11:33:36;38.60;23.50
80212;DHT22;70434;37.956;23.722;2023-07-24T11:36:03;38.80;23.10
80212;DHT22;70434;37.956;23.722;2023-07-24T11:38:30;38.90;23.10
80212;DHT22;70434;37.956;23.722;2023-07-24T11:40:55;39.00;22.80
80212;DHT22;70434;37.956;23.722;2023-07-24T11:43:25;39.10;23.30
80212;DHT22;70434;37.956;23.722;2023-07-24T11:45:53;39.20;22.80
80212;DHT22;70434;37.956;23.722;2023-07-24T11:48:23;39.20;23.20
80212;DHT22;70434;37.956;23.722;2023-07-24T11:50:54;39.20;23.00
80212;DHT22;70434;37.956;23.722;2023-07-24T11:55:51;39.50;22.70
80212;DHT22;70434;37.956;23.722;2023-07-24T11:58:18;39.50;22.70
80212;DHT22;70434;37.956;23.722;2023-07-24T12:00:49;39.40;22.70
80212;DHT22;70434;37.956;23.722;2023-07-24T12:03:35;39.50;22.70
80212;DHT22;70434;37.956;23.722;2023-07-24T12:06:02;39.50;22.60
80212;DHT22;70434;37.956;23.722;2023-07-24T12:08:33;39.50;22.40
80212;DHT22;70434;37.956;23.722;2023-07-24T12:10:59;39.50;22.80
80212;DHT22;70434;37.956;23.722;2023-07-24T12:13:25;39.50;22.40
80212;DHT22;70434;37.956;23.722;2023-07-24T12:15:51;39.70;22.80
80212;DHT22;70434;37.956;23.722;2023-07-24T12:18:17;39.70;22.30
80212;DHT22;70434;37.956;23.722;2023-07-24T12:20:43;39.80;22.40
80212;DHT22;70434;37.956;23.722;2023-07-24T12:23:08;39.90;22.40
80212;DHT22;70434;37.956;23.722;2023-07-24T12:25:34;39.80;22.60
80212;DHT22;70434;37.956;23.722;2023-07-24T12:28:00;39.90;22.50
80212;DHT22;70434;37.956;23.722;2023-07-24T12:30:26;40.00;22.50
80212;DHT22;70434;37.956;23.722;2023-07-24T12:32:51;40.00;22.30
80212;DHT22;70434;37.956;23.722;2023-07-24T12:35:17;40.00;22.40
80212;DHT22;70434;37.956;23.722;2023-07-24T12:37:46;40.10;22.10
80212;DHT22;70434;37.956;23.722;2023-07-24T12:40:12;40.10;22.80
80212;DHT22;70434;37.956;23.722;2023-07-24T12:42:39;40.00;23.00
80212;DHT22;70434;37.956;23.722;2023-07-24T12:45:05;40.00;22.70
80212;DHT22;70434;37.956;23.722;2023-07-24T12:47:32;40.00;22.70
80212;DHT22;70434;37.956;23.722;2023-07-24T12:49:58;40.00;22.70
80212;DHT22;70434;37.956;23.722;2023-07-24T12:52:25;40.00;23.10
80212;DHT22;70434;37.956;23.722;2023-07-24T12:54:51;40.20;23.00
80212;DHT22;70434;37.956;23.722;2023-07-24T12:57:17;40.20;22.70
80212;DHT22;70434;37.956;23.722;2023-07-24T12:59:43;40.30;22.70
80212;DHT22;70434;37.956;23.722;2023-07-24T13:02:09;40.00;23.00
80212;DHT22;70434;37.956;23.722;2023-07-24T13:04:34;39.80;23.50
80212;DHT22;70434;37.956;23.722;2023-07-24T13:07:00;39.90;23.20
80212;DHT22;70434;37.956;23.722;2023-07-24T13:09:27;40.00;22.90
80212;DHT22;70434;37.956;23.722;2023-07-24T13:11:53;40.10;22.90
80212;DHT22;70434;37.956;23.722;2023-07-24T13:14:20;40.30;22.80
80212;DHT22;70434;37.956;23.722;2023-07-24T13:16:46;40.40;22.90
80212;DHT22;70434;37.956;23.722;2023-07-24T13:19:12;40.50;22.90
80212;DHT22;70434;37.956;23.722;2023-07-24T13:21:38;40.60;22.90
80212;DHT22;70434;37.956;23.722;2023-07-24T13:24:06;40.70;22.50
80212;DHT22;70434;37.956;23.722;2023-07-24T13:26:31;40.80;22.40
80212;DHT22;70434;37.956;23.722;2023-07-24T13:28:57;41.10;22.20
80212;DHT22;70434;37.956;23.722;2023-07-24T13:31:23;41.10;22.20
80212;DHT22;70434;37.956;23.722;2023-07-24T13:33:49;41.10;21.90
80212;DHT22;70434;37.956;23.722;2023-07-24T13:36:15;41.00;21.70
80212;DHT22;70434;37.956;23.722;2023-07-24T13:38:41;40.90;22.10
80212;DHT22;70434;37.956;23.722;2023-07-24T13:41:07;40.70;22.30
80212;DHT22;70434;37.956;23.722;2023-07-24T13:43:34;40.80;21.90
80212;DHT22;70434;37.956;23.722;2023-07-24T13:45:59;41.00;22.00
80212;DHT22;70434;37.956;23.722;2023-07-24T13:48:28;41.10;21.90
80212;DHT22;70434;37.956;23.722;2023-07-24T13:50:54;41.30;21.60
80212;DHT22;70434;37.956;23.722;2023-07-24T13:53:20;41.30;21.60
80212;DHT22;70434;37.956;23.722;2023-07-24T13:55:48;41.30;21.60
80212;DHT22;70434;37.956;23.722;2023-07-24T13:58:14;41.30;21.80
80212;DHT22;70434;37.956;23.722;2023-07-24T14:00:40;41.30;21.70
80212;DHT22;70434;37.956;23.722;2023-07-24T14:03:06;41.40;21.60
80212;DHT22;70434;37.956;23.722;2023-07-24T14:05:33;41.30;21.60
80212;DHT22;70434;37.956;23.722;2023-07-24T14:07:59;41.40;20.20
80212;DHT22;70434;37.956;23.722;2023-07-24T14:10:24;41.30;20.30
80212;DHT22;70434;37.956;23.722;2023-07-24T14:12:50;41.40;20.70
80212;DHT22;70434;37.956;23.722;2023-07-24T14:15:16;41.30;20.90
80212;DHT22;70434;37.956;23.722;2023-07-24T14:17:42;41.20;21.40
80212;DHT22;70434;37.956;23.722;2023-07-24T14:20:08;41.10;21.80
80212;DHT22;70434;37.956;23.722;2023-07-24T14:22:34;41.10;21.70
80212;DHT22;70434;37.956;23.722;2023-07-24T14:24:59;41.30;21.40
80212;DHT22;70434;37.956;23.722;2023-07-24T14:27:25;41.30;21.60
80212;DHT22;70434;37.956;23.722;2023-07-24T14:29:51;41.40;20.60
80212;DHT22;70434;37.956;23.722;2023-07-24T14:32:17;41.60;20.40
80212;DHT22;70434;37.956;23.722;2023-07-24T14:34:43;41.80;20.70
80212;DHT22;70434;37.956;23.722;2023-07-24T14:37:08;41.90;21.20
80212;DHT22;70434;37.956;23.722;2023-07-24T14:39:34;41.80;21.60
80212;DHT22;70434;37.956;23.722;2023-07-24T14:42:00;41.70;21.30
80212;DHT22;70434;37.956;23.722;2023-07-24T14:44:26;41.70;21.40
80212;DHT22;70434;37.956;23.722;2023-07-24T14:46:53;41.80;21.40
80212;DHT22;70434;37.956;23.722;2023-07-24T14:49:19;41.70;21.00
80212;DHT22;70434;37.956;23.722;2023-07-24T14:51:44;41.60;21.30
80212;DHT22;70434;37.956;23.722;2023-07-24T14:54:10;41.40;21.60
80212;DHT22;70434;37.956;23.722;2023-07-24T14:56:36;41.40;21.60
80212;DHT22;70434;37.956;23.722;2023-07-24T14:59:02;41.40;21.60
80212;DHT22;70434;37.956;23.722;2023-07-24T15:01:27;41.50;21.40
80212;DHT22;70434;37.956;23.722;2023-07-24T15:03:56;41.50;21.20
80212;DHT22;70434;37.956;23.722;2023-07-24T15:06:21;41.50;21.20
80212;DHT22;70434;37.956;23.722;2023-07-24T15:08:48;41.50;21.40
80212;DHT22;70434;37.956;23.722;2023-07-24T15:11:19;41.60;21.20
80212;DHT22;70434;37.956;23.722;2023-07-24T15:13:45;41.60;21.00
80212;DHT22;70434;37.956;23.722;2023-07-24T15:16:10;41.70;21.00
80212;DHT22;70434;37.956;23.722;2023-07-24T15:18:36;41.70;21.90
80212;DHT22;70434;37.956;23.722;2023-07-24T15:21:02;41.60;21.10